Time;durP1;ratioP1;P1;durP2;ratioP2;P2;SDS_P1;SDS_P2;PMS_P1;PMS_P2;Temp;Humidity;BMP_temperature;BMP_pressure;BME280_temperature;BME280_humidity;BME280_pressure;Samples;Min_cycle;Max_cycle;Signal;HPM_P1;HPM_P2
2021/08/15 00:02:24;;;;;;;9.82;5.85;;;;;;;23.93;48.76;100236.31;5089620;28;20042;-73
2021/08/15 00:04:50;;;;;;;12.00;5.22;;;;;;;23.93;48.01;100236.31;5084583;28;20032;-73
2021/08/15 00:07:15;;;;;;;11.65;5.25;;;;;;;23.94;47.63;100229.88;5098430;28;20333;-73
2021/08/15 00:09:41;;;;;;;14.15;5.47;;;;;;;23.80;48.49;100237.38;5088974;28;20039;-73
2021/08/15 00:12:08;;;;;;;6.65;4.70;;;;;;;23.72;48.83;100235.84;5074533;28;20019;-73
2021/08/15 00:14:34;;;;;;;8.85;5.50;;;;;;;23.72;48.56;100235.84;5067428;28;20579;-73
2021/08/15 00:17:00;;;;;;;10.10;5.13;;;;;;;23.81;48.12;100244.44;5081577;28;20040;-73
2021/08/15 00:19:25;;;;;;;8.63;5.30;;;;;;;23.77;49.13;100241.38;5090770;28;20146;-73
2021/08/15 00:21:51;;;;;;;10.38;5.20;;;;;;;23.55;48.67;100238.44;5092086;28;20109;-73
2021/08/15 00:24:17;;;;;;;10.20;5.30;;;;;;;23.52;48.62;100233.47;5085409;28;20035;-73
2021/08/15 00:26:43;;;;;;;13.18;6.03;;;;;;;23.58;48.04;100228.22;5086425;28;20079;-73
2021/08/15 00:29:08;;;;;;;10.82;5.68;;;;;;;23.60;48.41;100231.50;5067981;28;20028;-73
2021/08/15 00:31:33;;;;;;;11.02;5.70;;;;;;;23.21;49.49;100234.63;5089697;28;20051;-73
2021/08/15 00:33:59;;;;;;;9.73;5.68;;;;;;;23.22;49.45;100236.28;5089168;28;20313;-73
2021/08/15 00:36:25;;;;;;;12.13;4.97;;;;;;;23.29;49.00;100236.16;5086679;28;20044;-73
2021/08/15 00:38:50;;;;;;;8.32;5.00;;;;;;;23.40;48.96;100234.53;5085506;28;20039;-73
2021/08/15 00:41:16;;;;;;;9.98;5.60;;;;;;;23.49;48.65;100243.94;5092601;28;20036;-73
2021/08/15 00:43:41;;;;;;;8.90;5.50;;;;;;;23.25;49.22;100235.81;5090421;28;20444;-73
2021/08/15 00:46:09;;;;;;;8.93;5.10;;;;;;;23.40;48.59;100235.34;5080137;28;20209;-73
2021/08/15 00:48:34;;;;;;;10.00;5.78;;;;;;;23.22;48.95;100230.88;5091694;28;20048;-73
2021/08/15 00:51:01;;;;;;;10.10;5.65;;;;;;;23.29;48.79;100240.75;5100893;28;20059;-73
2021/08/15 00:53:29;;;;;;;9.98;5.60;;;;;;;23.33;48.18;100231.13;5102657;28;20063;-73
2021/08/15 00:55:56;;;;;;;12.40;5.60;;;;;;;23.13;49.35;100236.84;5102558;28;20321;-73
2021/08/15 00:58:21;;;;;;;13.23;5.72;;;;;;;23.17;49.11;100230.75;5102332;28;20040;-73
2021/08/15 01:00:47;;;;;;;9.32;5.32;;;;;;;23.14;48.07;100231.22;5105404;28;20221;-72
2021/08/15 01:03:12;;;;;;;9.35;4.85;;;;;;;22.95;48.36;100218.03;5122802;28;20260;-73
2021/08/15 01:05:37;;;;;;;12.32;5.55;;;;;;;22.90;48.45;100224.13;5122118;28;20027;-72
2021/08/15 01:08:04;;;;;;;6.97;4.88;;;;;;;22.86;48.44;100222.91;5102232;28;20036;-73
2021/08/15 01:10:32;;;;;;;10.35;5.68;;;;;;;22.80;49.23;100230.03;5102510;28;20020;-72
2021/08/15 01:12:58;;;;;;;12.52;5.55;;;;;;;22.79;49.07;100225.66;5101872;28;20036;-73
2021/08/15 01:15:23;;;;;;;7.47;5.30;;;;;;;22.76;49.35;100222.59;5101874;28;20036;-73
2021/08/15 01:17:48;;;;;;;10.43;5.75;;;;;;;22.74;49.24;100219.31;5105254;28;20240;-73
2021/08/15 01:20:14;;;;;;;8.77;5.25;;;;;;;22.88;49.42;100227.03;5104477;28;20023;-73
2021/08/15 01:22:44;;;;;;;12.77;5.28;;;;;;;22.89;49.71;100228.69;5121622;28;20038;-73
2021/08/15 01:25:11;;;;;;;14.77;5.90;;;;;;;22.96;49.05;100230.47;5102363;28;20078;-73
2021/08/15 01:27:45;;;;;;;10.23;5.40;;;;;;;23.05;48.05;100229.91;5101968;28;20039;-73
2021/08/15 01:30:13;;;;;;;14.98;5.80;;;;;;;22.86;48.10;100226.44;5102034;28;20023;-73
2021/08/15 01:32:43;;;;;;;9.68;5.30;;;;;;;22.90;48.50;100238.44;5102020;28;20051;-73
2021/08/15 01:35:09;;;;;;;10.20;5.97;;;;;;;22.90;48.76;100241.16;5107198;28;20027;-73
2021/08/15 01:37:34;;;;;;;9.27;5.70;;;;;;;22.95;48.75;100237.75;5103370;28;20045;-73
2021/08/15 01:40:02;;;;;;;12.70;5.15;;;;;;;22.92;48.66;100235.50;5101648;28;20051;-73
2021/08/15 01:42:33;;;;;;;10.52;5.97;;;;;;;22.74;49.36;100239.03;5098174;28;20047;-73
2021/08/15 01:44:59;;;;;;;10.30;5.72;;;;;;;22.76;49.39;100231.53;5082180;28;20020;-73
2021/08/15 01:47:26;;;;;;;11.90;5.68;;;;;;;22.86;49.42;100242.63;5088327;28;20032;-73
2021/08/15 01:49:52;;;;;;;15.32;6.10;;;;;;;22.89;49.57;100249.47;5090828;28;20027;-73
2021/08/15 01:52:17;;;;;;;15.13;6.13;;;;;;;23.05;48.47;100238.00;5097438;28;20218;-73
2021/08/15 01:54:43;;;;;;;13.98;5.30;;;;;;;22.93;48.75;100237.97;5089823;28;20355;-72
2021/08/15 01:57:08;;;;;;;11.80;5.60;;;;;;;22.76;49.99;100236.09;5096839;28;20032;-73
2021/08/15 01:59:34;;;;;;;10.25;5.78;;;;;;;22.84;50.21;100241.22;5075219;28;20024;-72
2021/08/15 02:01:59;;;;;;;10.57;5.63;;;;;;;22.77;48.73;100237.75;5091554;28;20037;-73
2021/08/15 02:04:25;;;;;;;14.00;6.22;;;;;;;22.57;49.71;100238.84;5084549;28;20340;-73
2021/08/15 02:06:50;;;;;;;10.90;5.85;;;;;;;22.43;50.43;100242.78;5085645;28;20039;-73
2021/08/15 02:09:16;;;;;;;16.42;5.32;;;;;;;22.33;49.55;100236.28;5074284;28;20031;-72
2021/08/15 02:11:42;;;;;;;15.80;5.53;;;;;;;22.20;50.05;100232.69;5074285;28;20059;-73
2021/08/15 02:14:07;;;;;;;12.65;5.05;;;;;;;22.10;49.83;100228.88;5094768;28;20145;-73
2021/08/15 02:16:33;;;;;;;13.65;6.00;;;;;;;21.97;50.93;100232.53;5101344;28;20035;-73
2021/08/15 02:18:58;;;;;;;9.18;5.63;;;;;;;21.85;51.28;100234.31;5086143;28;20028;-73
2021/08/15 02:21:23;;;;;;;10.70;6.35;;;;;;;21.71;52.52;100224.69;5089849;28;20032;-73
2021/08/15 02:23:49;;;;;;;12.40;6.45;;;;;;;21.67;51.37;100233.22;5101121;28;20391;-73
2021/08/15 02:26:14;;;;;;;9.00;5.90;;;;;;;21.43;52.21;100235.94;5100595;28;20035;-73
2021/08/15 02:28:40;;;;;;;9.18;6.18;;;;;;;21.38;53.58;100235.78;5097915;28;20034;-73
2021/08/15 02:31:05;;;;;;;13.10;6.03;;;;;;;21.37;52.50;100237.66;5100129;28;20032;-73
2021/08/15 02:33:31;;;;;;;10.75;6.18;;;;;;;21.42;52.73;100240.50;5093398;28;20352;-73
2021/08/15 02:35:57;;;;;;;12.75;6.38;;;;;;;21.39;53.12;100232.03;5094536;28;20355;-73
2021/08/15 02:38:22;;;;;;;11.90;6.47;;;;;;;21.67;52.63;100245.88;5095585;28;20174;-73
2021/08/15 02:40:48;;;;;;;18.67;6.03;;;;;;;21.70;52.78;100233.81;5074672;28;20056;-73
2021/08/15 02:43:13;;;;;;;16.98;6.57;;;;;;;21.69;53.82;100243.78;5085497;28;20222;-73
2021/08/15 02:45:38;;;;;;;14.18;6.43;;;;;;;21.88;53.28;100229.28;5095939;28;20042;-73
2021/08/15 02:48:04;;;;;;;11.23;6.30;;;;;;;21.72;52.67;100196.69;5095671;28;20036;-73
2021/08/15 02:50:30;;;;;;;19.98;7.00;;;;;;;21.89;53.67;100224.72;5083065;28;20043;-73
2021/08/15 02:52:55;;;;;;;11.10;6.18;;;;;;;21.85;53.59;100227.03;5094741;28;20040;-73
2021/08/15 02:55:21;;;;;;;9.80;5.80;;;;;;;22.00;53.33;100234.75;5100287;28;20061;-73
2021/08/15 02:57:46;;;;;;;13.30;6.75;;;;;;;22.13;53.05;100236.53;5095712;28;20089;-73
2021/08/15 03:00:12;;;;;;;10.70;6.18;;;;;;;21.95;53.21;100232.75;5085293;28;20039;-73
2021/08/15 03:02:39;;;;;;;13.57;6.63;;;;;;;21.93;53.63;100236.72;5099261;28;20077;-73
2021/08/15 03:05:06;;;;;;;10.55;6.72;;;;;;;21.99;53.58;100241.22;5092240;28;20059;-73
2021/08/15 03:07:32;;;;;;;11.50;6.53;;;;;;;22.02;53.89;100243.47;5090126;28;20373;-73
2021/08/15 03:09:57;;;;;;;13.73;7.13;;;;;;;22.13;53.52;100250.00;5071860;28;20024;-73
2021/08/15 03:12:23;;;;;;;10.38;6.35;;;;;;;22.21;53.16;100247.00;5091562;28;20040;-73
2021/08/15 03:14:48;;;;;;;11.55;6.38;;;;;;;22.25;53.20;100248.19;5088820;28;20024;-73
2021/08/15 03:17:14;;;;;;;11.43;6.15;;;;;;;22.21;53.37;100253.22;5099689;28;20039;-73
2021/08/15 03:19:39;;;;;;;17.08;7.38;;;;;;;21.85;54.40;100245.91;5078749;28;20020;-72
2021/08/15 03:22:06;;;;;;;14.30;6.90;;;;;;;21.63;55.27;100250.88;5090195;28;20038;-73
2021/08/15 03:24:32;;;;;;;16.08;7.57;;;;;;;21.47;55.72;100245.22;5085678;28;20036;-73
2021/08/15 03:26:57;;;;;;;14.93;6.80;;;;;;;21.77;55.24;100239.97;5090245;28;20028;-73
2021/08/15 03:29:22;;;;;;;14.77;6.65;;;;;;;21.88;54.74;100245.47;5094110;28;20047;-73
2021/08/15 03:31:48;;;;;;;11.07;6.53;;;;;;;22.02;54.15;100245.31;5094814;28;20034;-73
2021/08/15 03:34:14;;;;;;;13.68;6.97;;;;;;;22.01;53.64;100236.41;5083327;28;20028;-73
2021/08/15 03:36:40;;;;;;;16.65;6.80;;;;;;;21.93;54.05;100250.19;5095584;28;20051;-73
2021/08/15 03:39:06;;;;;;;38.55;8.05;;;;;;;21.85;54.00;100243.22;5089078;28;20353;-73
2021/08/15 03:41:32;;;;;;;28.67;7.68;;;;;;;21.88;53.40;100239.25;5089124;28;20095;-73
2021/08/15 03:43:57;;;;;;;16.48;6.72;;;;;;;21.67;53.60;100251.25;5093211;28;20356;-73
2021/08/15 03:46:24;;;;;;;22.60;7.00;;;;;;;21.46;54.19;100262.44;5078317;28;20363;-72
2021/08/15 03:48:49;;;;;;;16.35;7.53;;;;;;;21.66;53.63;100260.38;5094214;28;20032;-73
2021/08/15 03:51:15;;;;;;;16.23;7.55;;;;;;;21.77;53.23;100262.34;5091629;28;20086;-73
2021/08/15 03:53:40;;;;;;;18.45;7.45;;;;;;;21.81;52.95;100255.47;5093716;28;20032;-73
2021/08/15 03:56:05;;;;;;;18.20;8.15;;;;;;;21.55;53.82;100256.53;5084608;28;20025;-73
2021/08/15 03:58:31;;;;;;;11.30;7.35;;;;;;;21.53;54.09;100258.63;5089492;28;20024;-73
2021/08/15 04:00:57;;;;;;;21.15;7.50;;;;;;;21.42;54.36;100262.06;5097528;28;20338;-73
2021/08/15 04:03:22;;;;;;;18.38;7.82;;;;;;;21.59;54.09;100263.16;5093014;28;20028;-73
2021/08/15 04:05:48;;;;;;;16.63;6.70;;;;;;;21.62;54.02;100264.56;5095255;28;20044;-73
2021/08/15 04:08:14;;;;;;;10.02;6.60;;;;;;;21.51;54.60;100262.59;5091445;28;20074;-73
2021/08/15 04:10:40;;;;;;;17.98;8.13;;;;;;;21.64;54.39;100257.91;5093785;28;20036;-73
2021/08/15 04:13:05;;;;;;;24.08;8.20;;;;;;;21.70;54.05;100264.28;5099345;28;20044;-73
2021/08/15 04:15:31;;;;;;;20.73;9.38;;;;;;;21.84;54.13;100249.63;5090410;28;20317;-73
2021/08/15 04:17:57;;;;;;;12.05;7.82;;;;;;;21.81;54.23;100243.88;5090122;28;20070;-73
2021/08/15 04:20:23;;;;;;;13.88;7.82;;;;;;;21.77;54.43;100254.25;5089401;28;20024;-73
2021/08/15 04:22:49;;;;;;;13.43;7.22;;;;;;;21.89;54.54;100254.38;5095582;28;20095;-73
2021/08/15 04:25:15;;;;;;;13.95;7.72;;;;;;;22.04;54.24;100252.19;5074534;28;20498;-73
2021/08/15 04:27:40;;;;;;;20.27;9.65;;;;;;;22.15;53.58;100258.69;5093866;28;20032;-73
2021/08/15 04:30:07;;;;;;;14.23;10.82;;;;;;;21.99;53.94;100260.09;5095789;28;20121;-73
2021/08/15 04:32:33;;;;;;;18.50;9.35;;;;;;;21.96;53.96;100255.13;5091100;28;20033;-73
2021/08/15 04:34:59;;;;;;;12.77;8.77;;;;;;;22.12;53.87;100253.75;5090309;28;20062;-73
2021/08/15 04:37:24;;;;;;;21.60;9.45;;;;;;;22.22;53.47;100251.34;5090558;28;20251;-73
2021/08/15 04:39:50;;;;;;;13.88;8.27;;;;;;;22.30;53.47;100254.56;5092093;28;20329;-73
2021/08/15 04:42:15;;;;;;;18.13;9.50;;;;;;;22.41;52.90;100250.28;5097181;28;20031;-73
2021/08/15 04:44:41;;;;;;;16.85;9.52;;;;;;;22.54;52.63;100254.69;5075362;28;20245;-73
2021/08/15 04:47:06;;;;;;;13.95;9.38;;;;;;;22.74;52.00;100260.63;5086952;28;20233;-73
2021/08/15 04:49:32;;;;;;;13.13;8.52;;;;;;;22.65;52.47;100251.22;5080734;28;20020;-73
2021/08/15 04:51:57;;;;;;;26.02;9.90;;;;;;;22.64;52.85;100254.97;5093520;28;20318;-73
2021/08/15 04:54:26;;;;;;;17.52;9.32;;;;;;;22.92;51.85;100254.41;5090647;28;20028;-73
2021/08/15 04:56:56;;;;;;;18.75;9.38;;;;;;;22.93;52.30;100254.19;5087431;28;20115;-73
2021/08/15 04:59:22;;;;;;;15.55;9.55;;;;;;;23.11;51.44;100257.88;5088417;28;20032;-73
2021/08/15 05:01:48;;;;;;;20.83;10.13;;;;;;;23.19;51.03;100255.66;5077285;28;20093;-73
2021/08/15 05:04:13;;;;;;;18.83;9.88;;;;;;;23.44;50.54;100246.53;5094548;28;20344;-73
2021/08/15 05:06:39;;;;;;;14.38;8.80;;;;;;;23.70;49.63;100261.50;5090320;28;20028;-73
2021/08/15 05:09:04;;;;;;;21.85;8.85;;;;;;;23.93;48.82;100258.81;5093316;28;20016;-73
2021/08/15 05:11:30;;;;;;;13.80;8.23;;;;;;;23.98;48.76;100258.91;5092404;28;20101;-73
2021/08/15 05:13:56;;;;;;;17.38;8.70;;;;;;;24.30;48.22;100256.63;5077963;28;20022;-73
2021/08/15 05:16:22;;;;;;;10.93;7.90;;;;;;;24.56;47.18;100249.84;5088611;28;20253;-73
2021/08/15 05:18:48;;;;;;;18.45;9.02;;;;;;;24.72;46.86;100254.50;5090625;28;20024;-73
2021/08/15 05:21:13;;;;;;;14.70;8.68;;;;;;;24.80;46.76;100245.97;5092221;28;20032;-74
2021/08/15 05:23:39;;;;;;;11.32;7.97;;;;;;;25.16;45.81;100253.97;5092829;28;20214;-73
2021/08/15 05:26:05;;;;;;;14.40;8.40;;;;;;;25.51;44.92;100249.13;5090411;28;20087;-73
2021/08/15 05:28:30;;;;;;;16.95;8.77;;;;;;;25.65;44.42;100249.59;5087302;28;20024;-73
2021/08/15 05:30:56;;;;;;;16.67;8.45;;;;;;;25.44;44.76;100243.84;5083094;28;20032;-73
2021/08/15 05:33:21;;;;;;;11.93;6.95;;;;;;;25.88;43.04;100249.41;5077104;28;20347;-73
2021/08/15 05:35:47;;;;;;;14.77;7.35;;;;;;;26.20;42.77;100243.34;5093440;28;20286;-73
2021/08/15 05:38:12;;;;;;;15.88;7.15;;;;;;;26.67;41.67;100247.19;5088848;28;20082;-73
2021/08/15 05:40:38;;;;;;;14.15;6.95;;;;;;;27.00;40.23;100243.47;5088429;28;20028;-73
2021/08/15 05:43:03;;;;;;;13.60;6.82;;;;;;;26.98;40.61;100245.63;5091925;28;20060;-73
2021/08/15 05:45:29;;;;;;;12.05;6.85;;;;;;;27.00;40.25;100257.06;5090090;28;20039;-73
2021/08/15 05:47:54;;;;;;;12.20;7.13;;;;;;;27.19;40.03;100257.53;5093468;28;20318;-73
2021/08/15 05:50:20;;;;;;;10.93;7.65;;;;;;;27.62;39.33;100247.53;5068759;28;20087;-73
2021/08/15 05:52:46;;;;;;;13.55;7.20;;;;;;;27.86;39.15;100254.22;5087273;28;20103;-73
2021/08/15 05:55:12;;;;;;;14.95;6.43;;;;;;;28.38;38.15;100247.16;5095918;28;20040;-73
2021/08/15 05:57:37;;;;;;;15.93;7.25;;;;;;;28.73;37.17;100246.44;5095878;28;20034;-73
2021/08/15 06:00:05;;;;;;;11.73;6.75;;;;;;;29.02;36.63;100252.22;5087313;28;20051;-73
2021/08/15 06:02:30;;;;;;;11.10;6.07;;;;;;;29.30;36.40;100253.63;5092016;28;20039;-73
2021/08/15 06:04:56;;;;;;;11.50;6.68;;;;;;;29.30;35.80;100253.63;5100523;28;20244;-73
2021/08/15 06:07:21;;;;;;;11.27;6.32;;;;;;;29.52;35.74;100246.00;5083408;28;20236;-73
2021/08/15 06:09:47;;;;;;;12.63;6.18;;;;;;;29.70;35.34;100244.63;5094098;28;20024;-73
2021/08/15 06:12:12;;;;;;;14.95;6.75;;;;;;;29.77;35.10;100240.50;5090743;28;20040;-73
2021/08/15 06:14:37;;;;;;;11.27;6.38;;;;;;;29.92;34.87;100236.09;5076815;28;20214;-73
2021/08/15 06:17:03;;;;;;;7.93;6.10;;;;;;;30.24;34.21;100236.56;5095096;28;20203;-73
2021/08/15 06:19:29;;;;;;;11.55;6.50;;;;;;;30.29;34.07;100241.19;5097195;28;21513;-73
2021/08/15 06:21:54;;;;;;;13.02;5.78;;;;;;;30.20;33.94;100231.94;5070702;28;20190;-73
2021/08/15 06:24:19;;;;;;;12.48;6.20;;;;;;;30.63;33.44;100222.19;5086872;28;20102;-73
2021/08/15 06:26:45;;;;;;;10.38;6.15;;;;;;;30.65;33.20;100231.75;5088550;28;20036;-74
2021/08/15 06:29:10;;;;;;;9.60;6.28;;;;;;;30.58;32.83;100233.94;5090939;28;20241;-74
2021/08/15 06:31:36;;;;;;;13.05;6.35;;;;;;;30.46;32.99;100225.25;5096042;28;20337;-73
2021/08/15 06:34:02;;;;;;;9.63;5.53;;;;;;;30.25;32.84;100221.00;5099960;28;20020;-74
2021/08/15 06:36:28;;;;;;;13.55;7.30;;;;;;;30.12;33.21;100225.94;5094402;28;20072;-73
2021/08/15 06:38:54;;;;;;;10.02;5.38;;;;;;;30.32;33.13;100222.34;5087593;28;20103;-73
2021/08/15 06:41:20;;;;;;;6.63;5.45;;;;;;;30.63;32.78;100224.91;5100152;28;20028;-73
2021/08/15 06:43:46;;;;;;;19.15;7.22;;;;;;;30.49;32.97;100220.06;5095622;28;20046;-74
2021/08/15 06:46:12;;;;;;;12.93;5.97;;;;;;;30.97;32.13;100224.97;5094620;28;20032;-73
2021/08/15 06:48:38;;;;;;;12.98;6.15;;;;;;;31.12;31.67;100214.72;5093781;28;20036;-73
2021/08/15 06:51:04;;;;;;;9.38;5.70;;;;;;;31.30;31.17;100221.44;5089638;28;20280;-73
2021/08/15 06:53:30;;;;;;;9.93;5.82;;;;;;;31.37;31.09;100219.19;5085701;28;20028;-73
2021/08/15 06:56:01;;;;;;;10.23;5.50;;;;;;;31.52;31.28;100217.41;5099414;28;20040;-73
2021/08/15 06:58:27;;;;;;;12.77;5.25;;;;;;;31.93;30.23;100207.66;5089353;28;20587;-73
2021/08/15 07:00:53;;;;;;;8.85;5.15;;;;;;;32.54;29.72;100209.66;5089141;28;20032;-73
2021/08/15 07:03:18;;;;;;;8.13;5.20;;;;;;;32.35;29.40;100204.16;5072042;28;20035;-73
2021/08/15 07:05:44;;;;;;;8.50;5.50;;;;;;;32.06;30.08;100197.94;5102970;28;20344;-74
2021/08/15 07:08:09;;;;;;;15.73;6.13;;;;;;;31.96;30.03;100198.06;5093556;28;20310;-73
2021/08/15 07:10:35;;;;;;;8.82;5.95;;;;;;;31.98;29.85;100209.53;5086104;28;20207;-73
2021/08/15 07:13:04;;;;;;;8.82;5.90;;;;;;;31.64;30.47;100196.75;5097067;28;20363;-73
2021/08/15 07:15:30;;;;;;;10.80;5.50;;;;;;;31.88;30.60;100199.50;5092773;28;20031;-74
2021/08/15 07:17:56;;;;;;;11.95;5.53;;;;;;;32.17;30.68;100195.88;5087141;28;20223;-74
2021/08/15 07:20:22;;;;;;;10.88;6.20;;;;;;;32.31;29.86;100180.41;5093528;28;20048;-73
2021/08/15 07:22:48;;;;;;;13.70;9.95;;;;;;;32.29;29.86;100188.91;5103501;28;20032;-73
2021/08/15 07:25:15;;;;;;;10.63;5.95;;;;;;;32.70;29.07;100188.31;5103060;28;20043;-73
2021/08/15 07:27:41;;;;;;;10.82;5.80;;;;;;;33.15;27.97;100188.69;5092116;28;20204;-73
2021/08/15 07:30:07;;;;;;;7.57;5.15;;;;;;;33.63;27.07;100194.72;5098332;28;20073;-73
2021/08/15 07:32:33;;;;;;;10.05;5.72;;;;;;;33.57;27.33;100194.00;5095143;28;20058;-74
2021/08/15 07:35:01;;;;;;;10.85;5.72;;;;;;;34.05;26.32;100188.13;5090038;28;20028;-73
2021/08/15 07:37:28;;;;;;;17.17;5.85;;;;;;;34.41;26.09;100192.91;5094449;28;20349;-73
2021/08/15 07:39:53;;;;;;;12.20;6.28;;;;;;;34.01;26.44;100187.13;5089434;28;20318;-73
2021/08/15 07:42:20;;;;;;;8.23;5.57;;;;;;;33.84;26.57;100178.69;5086858;28;20043;-73
2021/08/15 07:44:46;;;;;;;10.73;5.40;;;;;;;33.96;26.68;100184.47;5091668;28;20345;-73
2021/08/15 07:47:12;;;;;;;10.55;5.50;;;;;;;33.89;26.71;100184.91;5091818;28;20054;-73
2021/08/15 07:49:37;;;;;;;9.90;5.20;;;;;;;34.25;26.24;100178.63;5095841;28;20048;-73
2021/08/15 07:52:03;;;;;;;13.13;5.40;;;;;;;34.28;25.26;100167.84;5094636;28;20032;-73
2021/08/15 07:54:29;;;;;;;10.30;5.25;;;;;;;34.30;25.38;100170.28;5080676;28;20436;-73
2021/08/15 07:56:54;;;;;;;11.30;5.30;;;;;;;34.82;24.96;100166.09;5094365;28;20051;-73
2021/08/15 07:59:20;;;;;;;13.43;6.40;;;;;;;34.57;25.19;100167.50;5098750;28;20301;-73
2021/08/15 08:01:45;;;;;;;9.38;5.68;;;;;;;34.70;25.57;100168.56;5095534;28;20107;-73
2021/08/15 08:04:11;;;;;;;15.00;5.53;;;;;;;34.72;25.18;100160.00;5095569;28;20042;-73
2021/08/15 08:06:36;;;;;;;11.15;5.93;;;;;;;34.84;25.10;100155.59;5082344;28;20029;-73
2021/08/15 08:09:02;;;;;;;11.95;5.40;;;;;;;35.19;24.60;100156.59;5085067;28;20118;-73
2021/08/15 08:11:27;;;;;;;8.38;5.13;;;;;;;35.55;24.38;100154.88;5091383;28;20035;-73
2021/08/15 08:13:54;;;;;;;7.93;5.47;;;;;;;35.04;24.26;100147.94;5095654;28;20028;-73
2021/08/15 08:16:19;;;;;;;20.27;5.63;;;;;;;35.19;24.81;100142.03;5081817;28;20322;-73
2021/08/15 08:18:47;;;;;;;9.68;5.57;;;;;;;35.15;24.66;100152.84;5100805;28;20333;-73
2021/08/15 08:21:13;;;;;;;7.53;5.53;;;;;;;34.95;24.42;100141.56;5091574;28;20043;-73
2021/08/15 08:23:40;;;;;;;7.90;4.78;;;;;;;34.91;24.26;100138.63;5089547;28;20228;-73
2021/08/15 08:26:06;;;;;;;9.93;5.03;;;;;;;34.77;24.97;100135.13;5093098;28;20028;-73
2021/08/15 08:28:32;;;;;;;11.73;5.55;;;;;;;34.96;25.21;100127.50;5093638;28;20067;-73
2021/08/15 08:30:57;;;;;;;10.15;5.05;;;;;;;34.51;25.11;100133.00;5098374;28;20049;-73
2021/08/15 08:33:23;;;;;;;13.68;6.03;;;;;;;34.49;25.51;100121.50;5097190;28;20023;-73
2021/08/15 08:35:48;;;;;;;12.88;5.53;;;;;;;34.68;24.99;100126.00;5093980;28;20032;-74
2021/08/15 08:38:13;;;;;;;9.07;5.30;;;;;;;34.71;24.50;100117.13;5086234;28;20043;-73
2021/08/15 08:40:40;;;;;;;8.63;5.10;;;;;;;35.05;24.20;100120.09;5091244;28;20093;-73
2021/08/15 08:43:05;;;;;;;8.85;5.40;;;;;;;34.98;23.78;100107.91;5088752;28;20104;-73
2021/08/15 08:45:35;;;;;;;9.13;4.93;;;;;;;35.44;23.40;100115.81;5091372;28;20024;-73
2021/08/15 08:48:02;;;;;;;7.13;5.07;;;;;;;35.47;23.82;100096.69;5088744;28;20040;-73
2021/08/15 08:50:28;;;;;;;10.73;5.38;;;;;;;35.33;23.85;100115.25;5101550;28;20040;-73
2021/08/15 08:52:54;;;;;;;8.82;5.53;;;;;;;35.26;24.14;100114.84;5082680;28;20050;-73
2021/08/15 08:55:20;;;;;;;9.13;5.40;;;;;;;35.33;23.48;100114.44;5092473;28;20039;-73
2021/08/15 08:57:47;;;;;;;9.23;5.55;;;;;;;35.46;23.03;100102.53;5084548;28;20036;-73
2021/08/15 09:00:13;;;;;;;11.77;5.13;;;;;;;35.69;23.15;100100.47;5095387;28;20081;-73
2021/08/15 09:02:39;;;;;;;7.32;4.80;;;;;;;35.60;23.74;100097.69;5093263;28;20047;-73
2021/08/15 09:05:06;;;;;;;10.35;4.65;;;;;;;35.37;24.07;100091.44;5084308;28;20037;-73
2021/08/15 09:07:36;;;;;;;6.90;4.57;;;;;;;35.38;23.20;100087.59;5088284;28;20043;-73
2021/08/15 09:10:05;;;;;;;8.90;5.50;;;;;;;35.15;23.16;100091.50;5093809;28;20082;-73
2021/08/15 09:12:41;;;;;;;10.57;5.10;;;;;;;34.95;23.50;100084.59;5070817;28;20043;-74
2021/08/15 09:15:12;;;;;;;8.05;4.80;;;;;;;34.98;23.69;100083.97;5086842;28;20256;-74
2021/08/15 09:17:38;;;;;;;12.85;5.20;;;;;;;34.81;23.76;100073.66;5117723;28;20031;-73
2021/08/15 09:20:05;;;;;;;9.23;5.40;;;;;;;34.98;23.96;100078.47;5122393;28;20038;-73
2021/08/15 09:22:35;;;;;;;11.70;5.47;;;;;;;35.39;22.76;100071.88;5122360;28;20210;-73
2021/08/15 09:25:12;;;;;;;9.73;5.45;;;;;;;35.42;22.94;100069.31;5122906;28;20230;-73
2021/08/15 09:27:54;;;;;;;10.10;5.05;;;;;;;35.70;23.23;100063.53;5121527;28;20043;-73
2021/08/15 09:30:26;;;;;;;11.63;4.90;;;;;;;35.56;23.26;100071.94;5107597;28;20398;-73
2021/08/15 09:32:55;;;;;;;9.20;4.97;;;;;;;35.60;23.14;100061.09;5122615;28;20086;-73
2021/08/15 09:35:22;;;;;;;10.48;4.85;;;;;;;35.37;22.95;100060.34;5121841;28;20039;-73
2021/08/15 09:37:54;;;;;;;9.63;4.22;;;;;;;35.40;22.63;100060.56;5121302;28;20038;-73
2021/08/15 09:40:20;;;;;;;8.60;4.20;;;;;;;35.19;23.31;100054.75;5100514;28;20042;-73
2021/08/15 09:42:46;;;;;;;7.57;4.38;;;;;;;34.58;23.79;100047.31;5121613;28;20032;-73
2021/08/15 09:45:16;;;;;;;8.68;4.88;;;;;;;33.91;24.37;100049.97;5122508;28;20038;-73
2021/08/15 09:47:49;;;;;;;9.50;5.03;;;;;;;33.17;25.43;100052.00;5121962;28;20087;-73
2021/08/15 09:50:18;;;;;;;8.90;4.95;;;;;;;32.74;25.61;100046.75;5121631;28;20036;-72
2021/08/15 09:52:44;;;;;;;7.22;4.72;;;;;;;32.64;26.15;100047.75;5122031;28;20041;-72
2021/08/15 09:55:10;;;;;;;10.15;5.15;;;;;;;32.87;25.79;100036.94;5122325;28;20035;-72
2021/08/15 09:57:37;;;;;;;7.25;4.65;;;;;;;33.03;26.25;100032.00;5121811;28;20031;-73
2021/08/15 10:00:27;;;;;;;7.78;5.07;;;;;;;33.31;26.40;100034.50;5122013;28;20019;-73
2021/08/15 10:02:53;;;;;;;7.32;4.65;;;;;;;33.57;25.04;100020.22;5106996;28;20028;-73
2021/08/15 10:05:20;;;;;;;6.72;5.00;;;;;;;33.63;25.37;100019.81;5121819;28;20051;-73
2021/08/15 10:07:46;;;;;;;7.68;4.80;;;;;;;33.59;25.07;100009.75;5104690;28;20039;-73
2021/08/15 10:10:17;;;;;;;8.07;4.80;;;;;;;33.55;25.07;100009.56;5126251;28;20043;-73
2021/08/15 10:12:43;;;;;;;10.88;4.93;;;;;;;33.48;25.12;100003.66;5125683;28;20039;-73
2021/08/15 10:15:13;;;;;;;7.60;4.88;;;;;;;33.46;26.15;99997.66;5126158;28;20039;-73
2021/08/15 10:17:39;;;;;;;8.98;4.80;;;;;;;33.36;25.83;99999.81;5114459;28;20077;-73
2021/08/15 10:20:09;;;;;;;11.10;4.80;;;;;;;33.47;25.38;99998.47;5085724;28;20051;-73
2021/08/15 10:22:37;;;;;;;10.02;5.10;;;;;;;32.89;26.46;99996.31;5089736;28;20028;-73
2021/08/15 10:25:05;;;;;;;7.15;4.80;;;;;;;32.58;27.04;99990.56;5084705;28;20233;-73
2021/08/15 10:27:40;;;;;;;7.93;4.80;;;;;;;32.27;27.31;99993.03;5084285;28;20057;-73
2021/08/15 10:30:32;;;;;;;6.85;5.00;;;;;;;32.26;27.43;99989.47;5084932;28;20044;-73
2021/08/15 10:32:57;;;;;;;12.27;5.25;;;;;;;32.59;27.68;99984.78;5065739;28;20044;-73
2021/08/15 10:35:22;;;;;;;7.93;4.28;;;;;;;32.88;26.98;99975.50;5084646;28;20037;-73
2021/08/15 10:37:52;;;;;;;9.30;5.25;;;;;;;33.23;27.09;99976.69;5086084;28;20048;-73
2021/08/15 10:40:43;;;;;;;8.20;4.80;;;;;;;33.24;26.37;99970.91;5084364;28;20314;-73
2021/08/15 10:43:12;;;;;;;7.25;4.40;;;;;;;33.16;26.95;99968.06;5084993;28;20377;-73
2021/08/15 10:45:39;;;;;;;8.50;4.57;;;;;;;32.44;26.89;99959.56;5085849;28;20074;-73
2021/08/15 10:48:04;;;;;;;9.48;5.40;;;;;;;32.67;27.25;99958.59;5088158;28;20044;-73
2021/08/15 10:50:42;;;;;;;8.60;4.68;;;;;;;32.65;26.96;99950.66;5085664;28;20095;-73
2021/08/15 10:53:26;;;;;;;6.40;5.18;;;;;;;32.66;27.43;99956.97;5088772;28;20102;-73
2021/08/15 10:55:58;;;;;;;7.07;4.53;;;;;;;32.47;27.09;99953.50;5085060;28;20323;-73
2021/08/15 10:58:37;;;;;;;8.88;5.10;;;;;;;32.66;27.07;99949.56;5083595;28;20360;-73
2021/08/15 11:01:10;;;;;;;8.90;4.68;;;;;;;32.24;27.17;99945.09;5084092;28;20142;-73
2021/08/15 11:03:54;;;;;;;8.18;4.85;;;;;;;32.30;27.00;99946.66;5097924;28;20059;-73
2021/08/15 11:06:39;;;;;;;;;;;;;;;32.02;27.25;99951.19;5085670;28;20086;-73
2021/08/15 11:09:06;;;;;;;7.30;4.93;;;;;;;31.71;27.52;99944.56;5067018;28;19970;-73
2021/08/15 11:11:41;;;;;;;8.27;4.30;;;;;;;32.01;27.52;99948.75;5086104;28;20024;-73
2021/08/15 11:14:18;;;;;;;10.75;4.80;;;;;;;32.10;27.38;99935.19;5084616;28;20321;-73
2021/08/15 11:16:54;;;;;;;7.72;4.50;;;;;;;31.96;27.72;99940.59;5086580;28;20051;-74
2021/08/15 11:19:20;;;;;;;7.45;4.50;;;;;;;31.82;27.32;99932.34;5085149;28;20032;-73
2021/08/15 11:22:08;;;;;;;6.93;4.85;;;;;;;31.95;27.31;99941.72;5087724;28;20055;-73